sensor_id;sensor_type;location;lat;lon;timestamp;P1;durP1;ratioP1;P2;durP2;ratioP2
6828;SDS011;17930;48.592;8.868;2023-04-08T00:02:05;21.60;;;10.57;;
6828;SDS011;17930;48.592;8.868;2023-04-08T00:04:33;18.27;;;10.00;;
6828;SDS011;17930;48.592;8.868;2023-04-08T00:07:00;20.83;;;11.30;;
6828;SDS011;17930;48.592;8.868;2023-04-08T00:09:26;19.20;;;10.03;;
6828;SDS011;17930;48.592;8.868;2023-04-08T00:11:53;18.30;;;10.03;;
6828;SDS011;17930;48.592;8.868;2023-04-08T00:14:21;18.97;;;10.40;;
6828;SDS011;17930;48.592;8.868;2023-04-08T00:16:48;19.93;;;11.03;;
6828;SDS011;17930;48.592;8.868;2023-04-08T00:19:14;21.03;;;11.40;;
6828;SDS011;17930;48.592;8.868;2023-04-08T00:21:42;18.90;;;10.33;;
6828;SDS011;17930;48.592;8.868;2023-04-08T00:24:09;20.47;;;11.13;;
6828;SDS011;17930;48.592;8.868;2023-04-08T00:26:36;19.93;;;11.17;;
6828;SDS011;17930;48.592;8.868;2023-04-08T00:29:05;19.37;;;10.93;;
6828;SDS011;17930;48.592;8.868;2023-04-08T00:31:32;17.83;;;10.50;;
6828;SDS011;17930;48.592;8.868;2023-04-08T00:33:58;19.03;;;11.20;;
6828;SDS011;17930;48.592;8.868;2023-04-08T00:36:25;22.47;;;11.50;;
6828;SDS011;17930;48.592;8.868;2023-04-08T00:38:53;24.07;;;11.47;;
6828;SDS011;17930;48.592;8.868;2023-04-08T00:41:20;17.27;;;10.37;;
6828;SDS011;17930;48.592;8.868;2023-04-08T00:43:48;21.20;;;10.50;;
6828;SDS011;17930;48.592;8.868;2023-04-08T00:46:14;21.60;;;10.80;;
6828;SDS011;17930;48.592;8.868;2023-04-08T00:48:41;17.40;;;9.97;;
6828;SDS011;17930;48.592;8.868;2023-04-08T00:51:08;16.90;;;9.40;;
6828;SDS011;17930;48.592;8.868;2023-04-08T00:53:35;15.77;;;9.97;;
6828;SDS011;17930;48.592;8.868;2023-04-08T00:56:03;15.97;;;9.77;;
6828;SDS011;17930;48.592;8.868;2023-04-08T00:58:30;15.07;;;9.23;;
6828;SDS011;17930;48.592;8.868;2023-04-08T01:00:58;18.93;;;9.60;;
6828;SDS011;17930;48.592;8.868;2023-04-08T01:03:31;13.67;;;9.13;;
6828;SDS011;17930;48.592;8.868;2023-04-08T01:06:06;17.03;;;9.50;;
6828;SDS011;17930;48.592;8.868;2023-04-08T01:08:38;15.57;;;10.17;;
6828;SDS011;17930;48.592;8.868;2023-04-08T01:11:10;15.87;;;9.17;;
6828;SDS011;17930;48.592;8.868;2023-04-08T01:13:39;16.43;;;9.50;;
6828;SDS011;17930;48.592;8.868;2023-04-08T01:16:08;13.80;;;8.90;;
6828;SDS011;17930;48.592;8.868;2023-04-08T01:18:38;18.40;;;10.10;;
6828;SDS011;17930;48.592;8.868;2023-04-08T01:21:05;16.10;;;9.80;;
6828;SDS011;17930;48.592;8.868;2023-04-08T01:23:36;17.10;;;8.60;;
6828;SDS011;17930;48.592;8.868;2023-04-08T01:26:07;14.80;;;8.53;;
6828;SDS011;17930;48.592;8.868;2023-04-08T01:28:35;14.90;;;8.50;;
6828;SDS011;17930;48.592;8.868;2023-04-08T01:31:04;14.43;;;8.87;;
6828;SDS011;17930;48.592;8.868;2023-04-08T01:33:32;13.47;;;8.17;;
6828;SDS011;17930;48.592;8.868;2023-04-08T01:35:59;13.47;;;8.23;;
6828;SDS011;17930;48.592;8.868;2023-04-08T01:38:27;14.60;;;7.50;;
6828;SDS011;17930;48.592;8.868;2023-04-08T01:40:55;13.17;;;8.33;;
6828;SDS011;17930;48.592;8.868;2023-04-08T01:43:24;15.37;;;8.17;;
6828;SDS011;17930;48.592;8.868;2023-04-08T01:45:52;13.97;;;8.37;;
6828;SDS011;17930;48.592;8.868;2023-04-08T01:48:22;13.00;;;8.03;;
6828;SDS011;17930;48.592;8.868;2023-04-08T01:50:49;13.87;;;8.10;;
6828;SDS011;17930;48.592;8.868;2023-04-08T01:53:17;12.97;;;8.77;;
6828;SDS011;17930;48.592;8.868;2023-04-08T01:55:43;14.13;;;9.00;;
6828;SDS011;17930;48.592;8.868;2023-04-08T01:58:11;15.20;;;8.90;;
6828;SDS011;17930;48.592;8.868;2023-04-08T02:00:45;14.87;;;9.23;;
6828;SDS011;17930;48.592;8.868;2023-04-08T02:03:12;19.73;;;9.90;;
6828;SDS011;17930;48.592;8.868;2023-04-08T02:05:42;17.70;;;11.53;;
6828;SDS011;17930;48.592;8.868;2023-04-08T02:08:10;17.40;;;10.97;;
6828;SDS011;17930;48.592;8.868;2023-04-08T02:10:37;19.10;;;11.63;;
6828;SDS011;17930;48.592;8.868;2023-04-08T02:13:03;19.83;;;11.37;;
6828;SDS011;17930;48.592;8.868;2023-04-08T02:15:32;22.07;;;11.30;;
6828;SDS011;17930;48.592;8.868;2023-04-08T02:18:04;22.23;;;12.47;;
6828;SDS011;17930;48.592;8.868;2023-04-08T02:20:40;19.17;;;11.33;;
6828;SDS011;17930;48.592;8.868;2023-04-08T02:23:12;18.93;;;11.20;;
6828;SDS011;17930;48.592;8.868;2023-04-08T02:25:42;19.77;;;11.20;;
6828;SDS011;17930;48.592;8.868;2023-04-08T02:28:10;20.97;;;11.50;;
6828;SDS011;17930;48.592;8.868;2023-04-08T02:30:40;22.83;;;12.00;;
6828;SDS011;17930;48.592;8.868;2023-04-08T02:33:09;18.13;;;10.87;;
6828;SDS011;17930;48.592;8.868;2023-04-08T02:35:38;19.43;;;10.83;;
6828;SDS011;17930;48.592;8.868;2023-04-08T02:38:06;18.83;;;11.23;;
6828;SDS011;17930;48.592;8.868;2023-04-08T02:40:34;18.97;;;11.87;;
6828;SDS011;17930;48.592;8.868;2023-04-08T02:43:01;19.97;;;11.80;;
6828;SDS011;17930;48.592;8.868;2023-04-08T02:45:29;18.90;;;11.20;;
6828;SDS011;17930;48.592;8.868;2023-04-08T02:47:56;20.10;;;11.03;;
6828;SDS011;17930;48.592;8.868;2023-04-08T02:50:25;17.80;;;10.00;;
6828;SDS011;17930;48.592;8.868;2023-04-08T02:52:52;18.30;;;9.90;;
6828;SDS011;17930;48.592;8.868;2023-04-08T02:55:19;19.13;;;9.90;;
6828;SDS011;17930;48.592;8.868;2023-04-08T02:57:46;17.93;;;9.43;;
6828;SDS011;17930;48.592;8.868;2023-04-08T03:00:14;17.37;;;10.17;;
6828;SDS011;17930;48.592;8.868;2023-04-08T03:02:41;15.37;;;9.30;;
6828;SDS011;17930;48.592;8.868;2023-04-08T03:05:08;16.37;;;10.60;;
6828;SDS011;17930;48.592;8.868;2023-04-08T03:07:36;20.70;;;10.97;;
6828;SDS011;17930;48.592;8.868;2023-04-08T03:10:04;19.20;;;9.70;;
6828;SDS011;17930;48.592;8.868;2023-04-08T03:12:31;19.03;;;11.03;;
6828;SDS011;17930;48.592;8.868;2023-04-08T03:14:58;17.03;;;9.90;;
6828;SDS011;17930;48.592;8.868;2023-04-08T03:17:25;18.00;;;9.32;;
6828;SDS011;17930;48.592;8.868;2023-04-08T03:19:52;18.33;;;9.73;;
6828;SDS011;17930;48.592;8.868;2023-04-08T03:22:19;18.10;;;9.10;;
6828;SDS011;17930;48.592;8.868;2023-04-08T03:24:47;15.83;;;9.07;;
6828;SDS011;17930;48.592;8.868;2023-04-08T03:27:13;16.60;;;10.10;;
6828;SDS011;17930;48.592;8.868;2023-04-08T03:29:40;15.53;;;8.50;;
6828;SDS011;17930;48.592;8.868;2023-04-08T03:32:07;14.17;;;8.27;;
6828;SDS011;17930;48.592;8.868;2023-04-08T03:34:34;12.43;;;8.00;;
6828;SDS011;17930;48.592;8.868;2023-04-08T03:37:00;15.60;;;9.33;;
6828;SDS011;17930;48.592;8.868;2023-04-08T03:39:27;16.63;;;8.73;;
6828;SDS011;17930;48.592;8.868;2023-04-08T03:41:55;15.07;;;8.87;;
6828;SDS011;17930;48.592;8.868;2023-04-08T03:44:24;14.03;;;8.17;;
6828;SDS011;17930;48.592;8.868;2023-04-08T03:46:50;15.33;;;8.43;;
6828;SDS011;17930;48.592;8.868;2023-04-08T03:49:17;15.67;;;8.27;;
6828;SDS011;17930;48.592;8.868;2023-04-08T03:51:43;12.63;;;7.93;;
6828;SDS011;17930;48.592;8.868;2023-04-08T03:54:10;16.07;;;8.33;;
6828;SDS011;17930;48.592;8.868;2023-04-08T03:56:37;12.67;;;7.37;;
6828;SDS011;17930;48.592;8.868;2023-04-08T03:59:05;12.60;;;6.83;;
6828;SDS011;17930;48.592;8.868;2023-04-08T04:01:32;14.57;;;8.03;;
6828;SDS011;17930;48.592;8.868;2023-04-08T04:03:58;13.57;;;7.63;;
6828;SDS011;17930;48.592;8.868;2023-04-08T04:06:25;10.53;;;7.37;;
6828;SDS011;17930;48.592;8.868;2023-04-08T04:08:52;11.80;;;7.33;;
6828;SDS011;17930;48.592;8.868;2023-04-08T04:11:18;12.23;;;6.90;;
6828;SDS011;17930;48.592;8.868;2023-04-08T04:13:45;10.73;;;7.17;;
6828;SDS011;17930;48.592;8.868;2023-04-08T04:16:13;13.37;;;7.20;;
6828;SDS011;17930;48.592;8.868;2023-04-08T04:18:40;11.80;;;7.47;;
6828;SDS011;17930;48.592;8.868;2023-04-08T04:21:06;13.97;;;7.10;;
6828;SDS011;17930;48.592;8.868;2023-04-08T04:23:33;9.57;;;6.73;;
6828;SDS011;17930;48.592;8.868;2023-04-08T04:26:00;11.13;;;7.27;;
6828;SDS011;17930;48.592;8.868;2023-04-08T04:28:26;11.20;;;7.03;;
6828;SDS011;17930;48.592;8.868;2023-04-08T04:30:53;11.20;;;6.80;;
6828;SDS011;17930;48.592;8.868;2023-04-08T04:33:21;12.47;;;7.30;;
6828;SDS011;17930;48.592;8.868;2023-04-08T04:35:48;12.43;;;7.07;;
6828;SDS011;17930;48.592;8.868;2023-04-08T04:38:14;11.60;;;7.33;;
6828;SDS011;17930;48.592;8.868;2023-04-08T04:40:41;11.93;;;6.97;;
6828;SDS011;17930;48.592;8.868;2023-04-08T04:43:08;11.80;;;6.77;;
6828;SDS011;17930;48.592;8.868;2023-04-08T04:45:35;11.97;;;7.43;;
6828;SDS011;17930;48.592;8.868;2023-04-08T04:48:01;11.10;;;7.07;;
6828;SDS011;17930;48.592;8.868;2023-04-08T04:50:29;11.90;;;7.53;;
6828;SDS011;17930;48.592;8.868;2023-04-08T04:52:56;11.73;;;6.87;;
6828;SDS011;17930;48.592;8.868;2023-04-08T04:55:23;10.90;;;7.07;;
6828;SDS011;17930;48.592;8.868;2023-04-08T04:57:50;10.73;;;6.57;;
6828;SDS011;17930;48.592;8.868;2023-04-08T05:00:16;9.87;;;6.37;;
6828;SDS011;17930;48.592;8.868;2023-04-08T05:02:43;11.33;;;7.40;;
6828;SDS011;17930;48.592;8.868;2023-04-08T05:05:09;11.03;;;6.50;;
6828;SDS011;17930;48.592;8.868;2023-04-08T05:07:37;13.37;;;7.63;;
6828;SDS011;17930;48.592;8.868;2023-04-08T05:10:05;10.37;;;6.43;;
6828;SDS011;17930;48.592;8.868;2023-04-08T05:12:34;10.73;;;7.20;;
6828;SDS011;17930;48.592;8.868;2023-04-08T05:15:03;10.67;;;6.77;;
6828;SDS011;17930;48.592;8.868;2023-04-08T05:17:30;11.37;;;7.77;;
6828;SDS011;17930;48.592;8.868;2023-04-08T05:19:57;13.50;;;6.70;;
6828;SDS011;17930;48.592;8.868;2023-04-08T05:22:23;10.13;;;6.47;;
6828;SDS011;17930;48.592;8.868;2023-04-08T05:24:51;10.73;;;7.30;;
6828;SDS011;17930;48.592;8.868;2023-04-08T05:27:18;10.30;;;6.57;;
6828;SDS011;17930;48.592;8.868;2023-04-08T05:29:45;8.93;;;6.13;;
6828;SDS011;17930;48.592;8.868;2023-04-08T05:32:12;10.57;;;6.50;;
6828;SDS011;17930;48.592;8.868;2023-04-08T05:34:41;9.60;;;6.13;;
6828;SDS011;17930;48.592;8.868;2023-04-08T05:37:07;10.67;;;7.03;;
6828;SDS011;17930;48.592;8.868;2023-04-08T05:39:34;11.10;;;6.80;;
6828;SDS011;17930;48.592;8.868;2023-04-08T05:42:02;15.83;;;7.03;;
6828;SDS011;17930;48.592;8.868;2023-04-08T05:44:29;10.27;;;6.43;;
6828;SDS011;17930;48.592;8.868;2023-04-08T05:46:55;9.73;;;5.53;;
6828;SDS011;17930;48.592;8.868;2023-04-08T05:49:22;9.47;;;6.30;;
6828;SDS011;17930;48.592;8.868;2023-04-08T05:51:49;10.80;;;6.57;;
6828;SDS011;17930;48.592;8.868;2023-04-08T05:54:15;11.10;;;6.20;;
6828;SDS011;17930;48.592;8.868;2023-04-08T05:56:42;11.47;;;6.63;;
6828;SDS011;17930;48.592;8.868;2023-04-08T05:59:11;9.13;;;6.37;;
6828;SDS011;17930;48.592;8.868;2023-04-08T06:01:38;8.50;;;5.73;;
6828;SDS011;17930;48.592;8.868;2023-04-08T06:04:05;10.00;;;6.50;;
6828;SDS011;17930;48.592;8.868;2023-04-08T06:06:31;10.47;;;6.70;;
6828;SDS011;17930;48.592;8.868;2023-04-08T06:08:58;10.90;;;6.97;;
6828;SDS011;17930;48.592;8.868;2023-04-08T06:11:24;8.90;;;5.93;;
6828;SDS011;17930;48.592;8.868;2023-04-08T06:13:51;9.10;;;6.00;;
6828;SDS011;17930;48.592;8.868;2023-04-08T06:16:19;10.43;;;6.67;;
6828;SDS011;17930;48.592;8.868;2023-04-08T06:18:45;12.30;;;7.70;;
6828;SDS011;17930;48.592;8.868;2023-04-08T06:21:12;9.83;;;6.50;;
6828;SDS011;17930;48.592;8.868;2023-04-08T06:23:39;10.10;;;6.37;;
6828;SDS011;17930;48.592;8.868;2023-04-08T06:26:05;11.00;;;6.53;;
6828;SDS011;17930;48.592;8.868;2023-04-08T06:28:32;9.90;;;5.87;;
6828;SDS011;17930;48.592;8.868;2023-04-08T06:30:58;9.00;;;6.20;;
6828;SDS011;17930;48.592;8.868;2023-04-08T06:33:26;9.90;;;6.17;;
6828;SDS011;17930;48.592;8.868;2023-04-08T06:36:00;9.43;;;5.77;;
6828;SDS011;17930;48.592;8.868;2023-04-08T06:38:27;10.03;;;6.83;;
6828;SDS011;17930;48.592;8.868;2023-04-08T06:40:54;9.47;;;6.33;;
6828;SDS011;17930;48.592;8.868;2023-04-08T06:43:20;9.43;;;5.87;;
6828;SDS011;17930;48.592;8.868;2023-04-08T06:45:47;9.00;;;5.67;;
6828;SDS011;17930;48.592;8.868;2023-04-08T06:48:13;8.90;;;6.27;;
6828;SDS011;17930;48.592;8.868;2023-04-08T06:50:41;10.23;;;6.13;;
6828;SDS011;17930;48.592;8.868;2023-04-08T06:53:09;9.20;;;5.47;;
6828;SDS011;17930;48.592;8.868;2023-04-08T06:55:35;6.70;;;5.00;;
6828;SDS011;17930;48.592;8.868;2023-04-08T06:58:02;9.03;;;5.90;;
6828;SDS011;17930;48.592;8.868;2023-04-08T07:00:28;8.30;;;5.83;;
6828;SDS011;17930;48.592;8.868;2023-04-08T07:02:55;10.47;;;6.97;;
6828;SDS011;17930;48.592;8.868;2023-04-08T07:05:22;8.67;;;5.83;;
6828;SDS011;17930;48.592;8.868;2023-04-08T07:07:50;10.33;;;6.27;;
6828;SDS011;17930;48.592;8.868;2023-04-08T07:10:16;8.97;;;6.20;;
6828;SDS011;17930;48.592;8.868;2023-04-08T07:12:43;10.87;;;6.20;;
6828;SDS011;17930;48.592;8.868;2023-04-08T07:15:10;9.67;;;6.70;;
6828;SDS011;17930;48.592;8.868;2023-04-08T07:17:37;9.47;;;6.20;;
6828;SDS011;17930;48.592;8.868;2023-04-08T07:20:04;9.43;;;6.27;;
6828;SDS011;17930;48.592;8.868;2023-04-08T07:22:31;9.73;;;6.83;;
6828;SDS011;17930;48.592;8.868;2023-04-08T07:24:59;8.87;;;6.47;;
6828;SDS011;17930;48.592;8.868;2023-04-08T07:27:27;9.27;;;6.00;;
6828;SDS011;17930;48.592;8.868;2023-04-08T07:29:53;8.93;;;5.93;;
6828;SDS011;17930;48.592;8.868;2023-04-08T07:32:20;9.90;;;5.70;;
6828;SDS011;17930;48.592;8.868;2023-04-08T07:34:47;8.73;;;5.70;;
6828;SDS011;17930;48.592;8.868;2023-04-08T07:37:14;8.50;;;5.83;;
6828;SDS011;17930;48.592;8.868;2023-04-08T07:39:42;7.97;;;5.47;;
6828;SDS011;17930;48.592;8.868;2023-04-08T07:42:10;7.43;;;4.80;;
6828;SDS011;17930;48.592;8.868;2023-04-08T07:44:36;6.07;;;4.77;;
6828;SDS011;17930;48.592;8.868;2023-04-08T07:47:03;7.17;;;4.87;;
6828;SDS011;17930;48.592;8.868;2023-04-08T07:49:30;6.67;;;4.60;;
6828;SDS011;17930;48.592;8.868;2023-04-08T07:51:56;7.23;;;5.03;;
6828;SDS011;17930;48.592;8.868;2023-04-08T07:54:23;6.93;;;4.83;;
6828;SDS011;17930;48.592;8.868;2023-04-08T07:56:50;7.90;;;5.43;;
6828;SDS011;17930;48.592;8.868;2023-04-08T07:59:17;7.33;;;4.97;;
6828;SDS011;17930;48.592;8.868;2023-04-08T08:01:44;6.73;;;4.67;;
6828;SDS011;17930;48.592;8.868;2023-04-08T08:04:11;8.23;;;4.80;;
6828;SDS011;17930;48.592;8.868;2023-04-08T08:06:38;10.23;;;5.67;;
6828;SDS011;17930;48.592;8.868;2023-04-08T08:09:05;10.83;;;5.63;;
6828;SDS011;17930;48.592;8.868;2023-04-08T08:11:34;8.13;;;5.57;;
6828;SDS011;17930;48.592;8.868;2023-04-08T08:14:00;9.10;;;5.77;;
6828;SDS011;17930;48.592;8.868;2023-04-08T08:16:30;9.33;;;6.20;;
6828;SDS011;17930;48.592;8.868;2023-04-08T08:18:57;11.37;;;6.47;;
6828;SDS011;17930;48.592;8.868;2023-04-08T08:21:24;10.93;;;6.60;;
6828;SDS011;17930;48.592;8.868;2023-04-08T08:23:51;10.07;;;6.30;;
6828;SDS011;17930;48.592;8.868;2023-04-08T08:26:19;8.37;;;5.60;;
6828;SDS011;17930;48.592;8.868;2023-04-08T08:28:45;9.20;;;6.17;;
6828;SDS011;17930;48.592;8.868;2023-04-08T08:31:12;7.73;;;5.50;;
6828;SDS011;17930;48.592;8.868;2023-04-08T08:33:40;8.57;;;5.50;;
6828;SDS011;17930;48.592;8.868;2023-04-08T08:36:07;6.90;;;5.17;;
6828;SDS011;17930;48.592;8.868;2023-04-08T08:38:33;7.53;;;5.17;;
6828;SDS011;17930;48.592;8.868;2023-04-08T08:41:00;7.27;;;5.57;;
6828;SDS011;17930;48.592;8.868;2023-04-08T08:43:28;9.77;;;5.20;;
6828;SDS011;17930;48.592;8.868;2023-04-08T08:45:57;8.33;;;5.07;;
6828;SDS011;17930;48.592;8.868;2023-04-08T08:48:24;5.83;;;4.87;;
6828;SDS011;17930;48.592;8.868;2023-04-08T08:50:52;6.33;;;4.40;;
6828;SDS011;17930;48.592;8.868;2023-04-08T08:53:19;6.93;;;5.00;;
6828;SDS011;17930;48.592;8.868;2023-04-08T08:55:47;7.07;;;5.33;;
6828;SDS011;17930;48.592;8.868;2023-04-08T08:58:13;6.87;;;4.77;;
6828;SDS011;17930;48.592;8.868;2023-04-08T09:00:40;5.07;;;3.90;;
6828;SDS011;17930;48.592;8.868;2023-04-08T09:03:15;7.00;;;4.93;;
6828;SDS011;17930;48.592;8.868;2023-04-08T09:05:46;9.83;;;6.00;;
6828;SDS011;17930;48.592;8.868;2023-04-08T09:08:25;8.07;;;5.27;;
6828;SDS011;17930;48.592;8.868;2023-04-08T09:10:53;8.93;;;5.83;;
6828;SDS011;17930;48.592;8.868;2023-04-08T09:13:21;9.83;;;5.50;;
6828;SDS011;17930;48.592;8.868;2023-04-08T09:16:00;7.47;;;5.13;;
6828;SDS011;17930;48.592;8.868;2023-04-08T09:18:29;6.70;;;5.23;;
6828;SDS011;17930;48.592;8.868;2023-04-08T09:20:58;7.53;;;5.40;;
6828;SDS011;17930;48.592;8.868;2023-04-08T09:23:34;9.60;;;5.93;;
6828;SDS011;17930;48.592;8.868;2023-04-08T09:26:05;8.13;;;5.73;;
6828;SDS011;17930;48.592;8.868;2023-04-08T09:28:32;7.83;;;5.40;;
6828;SDS011;17930;48.592;8.868;2023-04-08T09:30:59;6.80;;;5.23;;
6828;SDS011;17930;48.592;8.868;2023-04-08T09:33:29;6.70;;;5.30;;
6828;SDS011;17930;48.592;8.868;2023-04-08T09:35:56;6.27;;;5.33;;
6828;SDS011;17930;48.592;8.868;2023-04-08T09:38:23;9.57;;;5.57;;
6828;SDS011;17930;48.592;8.868;2023-04-08T09:40:51;7.63;;;6.03;;
6828;SDS011;17930;48.592;8.868;2023-04-08T09:43:19;6.97;;;5.57;;
6828;SDS011;17930;48.592;8.868;2023-04-08T09:45:49;8.43;;;5.97;;
6828;SDS011;17930;48.592;8.868;2023-04-08T09:48:17;7.80;;;5.60;;
6828;SDS011;17930;48.592;8.868;2023-04-08T09:50:48;10.13;;;5.93;;
6828;SDS011;17930;48.592;8.868;2023-04-08T09:53:18;8.67;;;6.40;;
6828;SDS011;17930;48.592;8.868;2023-04-08T09:55:52;7.00;;;5.43;;
6828;SDS011;17930;48.592;8.868;2023-04-08T09:58:24;8.23;;;6.17;;
6828;SDS011;17930;48.592;8.868;2023-04-08T10:00:54;7.77;;;5.60;;
6828;SDS011;17930;48.592;8.868;2023-04-08T10:03:23;7.60;;;5.93;;
6828;SDS011;17930;48.592;8.868;2023-04-08T10:05:53;8.30;;;5.97;;
6828;SDS011;17930;48.592;8.868;2023-04-08T10:08:21;8.27;;;6.33;;
6828;SDS011;17930;48.592;8.868;2023-04-08T10:10:48;8.50;;;6.10;;
6828;SDS011;17930;48.592;8.868;2023-04-08T10:13:17;8.53;;;5.90;;
6828;SDS011;17930;48.592;8.868;2023-04-08T10:15:44;7.70;;;6.00;;
6828;SDS011;17930;48.592;8.868;2023-04-08T10:18:30;7.87;;;5.70;;
6828;SDS011;17930;48.592;8.868;2023-04-08T10:20:58;8.97;;;6.47;;
6828;SDS011;17930;48.592;8.868;2023-04-08T10:26:34;7.70;;;6.23;;
6828;SDS011;17930;48.592;8.868;2023-04-08T10:32:13;8.80;;;5.90;;
6828;SDS011;17930;48.592;8.868;2023-04-08T10:34:53;8.10;;;6.50;;
6828;SDS011;17930;48.592;8.868;2023-04-08T10:37:20;9.43;;;5.70;;
6828;SDS011;17930;48.592;8.868;2023-04-08T10:39:49;8.03;;;6.03;;
6828;SDS011;17930;48.592;8.868;2023-04-08T10:42:19;7.97;;;5.90;;
6828;SDS011;17930;48.592;8.868;2023-04-08T10:44:54;9.90;;;6.77;;
6828;SDS011;17930;48.592;8.868;2023-04-08T10:47:25;10.60;;;7.30;;
6828;SDS011;17930;48.592;8.868;2023-04-08T10:49:52;9.03;;;6.40;;
6828;SDS011;17930;48.592;8.868;2023-04-08T10:52:19;9.33;;;6.73;;
6828;SDS011;17930;48.592;8.868;2023-04-08T10:54:47;9.33;;;6.07;;
6828;SDS011;17930;48.592;8.868;2023-04-08T10:57:14;9.23;;;6.27;;
6828;SDS011;17930;48.592;8.868;2023-04-08T10:59:41;8.07;;;6.13;;
6828;SDS011;17930;48.592;8.868;2023-04-08T11:02:13;7.93;;;6.20;;
6828;SDS011;17930;48.592;8.868;2023-04-08T11:04:40;8.20;;;6.60;;
6828;SDS011;17930;48.592;8.868;2023-04-08T11:07:07;9.97;;;6.97;;
6828;SDS011;17930;48.592;8.868;2023-04-08T11:09:33;9.10;;;6.70;;
6828;SDS011;17930;48.592;8.868;2023-04-08T11:12:00;8.57;;;6.73;;
6828;SDS011;17930;48.592;8.868;2023-04-08T11:14:27;10.87;;;8.73;;
6828;SDS011;17930;48.592;8.868;2023-04-08T11:16:54;10.47;;;6.40;;
6828;SDS011;17930;48.592;8.868;2023-04-08T11:19:22;8.67;;;6.77;;
6828;SDS011;17930;48.592;8.868;2023-04-08T11:21:49;8.30;;;6.73;;
6828;SDS011;17930;48.592;8.868;2023-04-08T11:24:16;9.80;;;7.27;;
6828;SDS011;17930;48.592;8.868;2023-04-08T11:26:43;10.40;;;6.87;;
6828;SDS011;17930;48.592;8.868;2023-04-08T11:29:10;12.53;;;7.93;;
6828;SDS011;17930;48.592;8.868;2023-04-08T11:31:38;8.13;;;6.63;;
6828;SDS011;17930;48.592;8.868;2023-04-08T11:34:06;10.57;;;7.37;;
6828;SDS011;17930;48.592;8.868;2023-04-08T11:36:35;8.07;;;6.83;;
6828;SDS011;17930;48.592;8.868;2023-04-08T11:39:05;11.73;;;6.90;;
6828;SDS011;17930;48.592;8.868;2023-04-08T11:41:36;9.97;;;7.07;;
6828;SDS011;17930;48.592;8.868;2023-04-08T11:44:04;9.80;;;7.10;;
6828;SDS011;17930;48.592;8.868;2023-04-08T11:46:31;10.50;;;7.10;;
6828;SDS011;17930;48.592;8.868;2023-04-08T11:48:59;9.63;;;6.60;;
6828;SDS011;17930;48.592;8.868;2023-04-08T11:51:27;9.60;;;7.00;;
6828;SDS011;17930;48.592;8.868;2023-04-08T11:53:56;10.57;;;6.77;;
6828;SDS011;17930;48.592;8.868;2023-04-08T11:56:23;8.90;;;6.50;;
6828;SDS011;17930;48.592;8.868;2023-04-08T11:58:50;11.43;;;7.17;;
6828;SDS011;17930;48.592;8.868;2023-04-08T12:01:18;9.00;;;6.60;;
6828;SDS011;17930;48.592;8.868;2023-04-08T12:03:55;12.90;;;7.20;;
6828;SDS011;17930;48.592;8.868;2023-04-08T12:06:25;10.90;;;7.20;;
6828;SDS011;17930;48.592;8.868;2023-04-08T12:08:53;11.10;;;7.30;;
6828;SDS011;17930;48.592;8.868;2023-04-08T12:11:22;9.97;;;6.70;;
6828;SDS011;17930;48.592;8.868;2023-04-08T12:13:49;9.60;;;6.80;;
6828;SDS011;17930;48.592;8.868;2023-04-08T12:16:17;9.40;;;6.87;;
6828;SDS011;17930;48.592;8.868;2023-04-08T12:18:44;11.37;;;7.17;;
6828;SDS011;17930;48.592;8.868;2023-04-08T12:21:11;10.30;;;7.30;;
6828;SDS011;17930;48.592;8.868;2023-04-08T12:23:38;8.47;;;6.60;;
6828;SDS011;17930;48.592;8.868;2023-04-08T12:26:06;10.43;;;6.57;;
6828;SDS011;17930;48.592;8.868;2023-04-08T12:28:33;9.27;;;6.80;;
6828;SDS011;17930;48.592;8.868;2023-04-08T12:31:00;10.00;;;7.03;;
6828;SDS011;17930;48.592;8.868;2023-04-08T12:33:27;8.57;;;6.60;;
6828;SDS011;17930;48.592;8.868;2023-04-08T12:35:54;10.07;;;6.43;;
6828;SDS011;17930;48.592;8.868;2023-04-08T12:38:22;11.77;;;7.07;;
6828;SDS011;17930;48.592;8.868;2023-04-08T12:40:49;10.73;;;6.97;;
6828;SDS011;17930;48.592;8.868;2023-04-08T12:43:16;9.40;;;6.30;;
6828;SDS011;17930;48.592;8.868;2023-04-08T12:45:43;10.47;;;7.00;;
6828;SDS011;17930;48.592;8.868;2023-04-08T12:48:10;8.97;;;6.83;;
6828;SDS011;17930;48.592;8.868;2023-04-08T12:50:36;12.13;;;7.60;;
6828;SDS011;17930;48.592;8.868;2023-04-08T12:53:03;9.43;;;6.43;;
6828;SDS011;17930;48.592;8.868;2023-04-08T12:55:30;8.30;;;6.40;;
6828;SDS011;17930;48.592;8.868;2023-04-08T12:57:56;9.57;;;6.83;;
6828;SDS011;17930;48.592;8.868;2023-04-08T13:00:24;9.10;;;6.67;;
6828;SDS011;17930;48.592;8.868;2023-04-08T13:02:51;10.77;;;7.03;;
6828;SDS011;17930;48.592;8.868;2023-04-08T13:05:17;10.50;;;7.33;;
6828;SDS011;17930;48.592;8.868;2023-04-08T13:07:44;9.20;;;6.87;;
6828;SDS011;17930;48.592;8.868;2023-04-08T13:10:11;11.40;;;7.00;;
6828;SDS011;17930;48.592;8.868;2023-04-08T13:12:37;9.70;;;7.47;;
6828;SDS011;17930;48.592;8.868;2023-04-08T13:15:05;9.03;;;6.60;;
6828;SDS011;17930;48.592;8.868;2023-04-08T13:17:35;14.50;;;9.07;;
6828;SDS011;17930;48.592;8.868;2023-04-08T13:20:01;10.60;;;8.00;;
6828;SDS011;17930;48.592;8.868;2023-04-08T13:22:28;9.17;;;6.20;;
6828;SDS011;17930;48.592;8.868;2023-04-08T13:24:55;8.90;;;6.47;;
6828;SDS011;17930;48.592;8.868;2023-04-08T13:27:22;9.67;;;6.23;;
6828;SDS011;17930;48.592;8.868;2023-04-08T13:29:48;8.70;;;6.60;;
6828;SDS011;17930;48.592;8.868;2023-04-08T13:32:15;8.40;;;6.30;;
6828;SDS011;17930;48.592;8.868;2023-04-08T13:34:43;10.70;;;7.10;;
6828;SDS011;17930;48.592;8.868;2023-04-08T13:37:10;9.13;;;6.17;;
6828;SDS011;17930;48.592;8.868;2023-04-08T13:39:37;7.57;;;6.27;;
6828;SDS011;17930;48.592;8.868;2023-04-08T13:42:03;9.67;;;6.90;;
6828;SDS011;17930;48.592;8.868;2023-04-08T13:44:30;10.30;;;7.30;;
6828;SDS011;17930;48.592;8.868;2023-04-08T13:46:57;10.10;;;7.03;;
6828;SDS011;17930;48.592;8.868;2023-04-08T13:49:25;11.07;;;6.53;;
6828;SDS011;17930;48.592;8.868;2023-04-08T13:51:53;9.00;;;6.47;;
6828;SDS011;17930;48.592;8.868;2023-04-08T13:54:20;11.53;;;7.10;;
6828;SDS011;17930;48.592;8.868;2023-04-08T13:56:46;11.13;;;6.87;;
6828;SDS011;17930;48.592;8.868;2023-04-08T13:59:13;8.00;;;6.07;;
6828;SDS011;17930;48.592;8.868;2023-04-08T14:01:40;9.63;;;6.70;;
6828;SDS011;17930;48.592;8.868;2023-04-08T14:04:06;8.47;;;7.03;;
6828;SDS011;17930;48.592;8.868;2023-04-08T14:06:33;8.57;;;6.17;;
6828;SDS011;17930;48.592;8.868;2023-04-08T14:09:02;9.90;;;6.27;;
6828;SDS011;17930;48.592;8.868;2023-04-08T14:11:28;10.90;;;7.33;;
6828;SDS011;17930;48.592;8.868;2023-04-08T14:13:55;9.20;;;6.90;;
6828;SDS011;17930;48.592;8.868;2023-04-08T14:16:22;19.57;;;9.40;;
6828;SDS011;17930;48.592;8.868;2023-04-08T14:18:49;9.57;;;6.97;;
6828;SDS011;17930;48.592;8.868;2023-04-08T14:21:15;10.07;;;7.13;;
6828;SDS011;17930;48.592;8.868;2023-04-08T14:23:42;8.00;;;6.13;;
6828;SDS011;17930;48.592;8.868;2023-04-08T14:26:10;11.27;;;7.57;;
6828;SDS011;17930;48.592;8.868;2023-04-08T14:28:37;10.30;;;7.47;;
6828;SDS011;17930;48.592;8.868;2023-04-08T14:31:04;11.87;;;7.87;;
6828;SDS011;17930;48.592;8.868;2023-04-08T14:33:31;10.03;;;6.70;;
6828;SDS011;17930;48.592;8.868;2023-04-08T14:35:58;10.27;;;7.23;;
6828;SDS011;17930;48.592;8.868;2023-04-08T14:38:24;8.83;;;6.50;;
6828;SDS011;17930;48.592;8.868;2023-04-08T14:40:51;9.00;;;6.60;;
6828;SDS011;17930;48.592;8.868;2023-04-08T14:43:20;8.73;;;6.50;;
6828;SDS011;17930;48.592;8.868;2023-04-08T14:45:48;9.80;;;6.10;;
6828;SDS011;17930;48.592;8.868;2023-04-08T14:48:15;8.57;;;6.20;;
6828;SDS011;17930;48.592;8.868;2023-04-08T14:50:41;9.90;;;6.43;;
6828;SDS011;17930;48.592;8.868;2023-04-08T14:53:08;8.03;;;6.73;;
6828;SDS011;17930;48.592;8.868;2023-04-08T14:55:35;9.50;;;6.27;;
6828;SDS011;17930;48.592;8.868;2023-04-08T14:58:02;8.93;;;6.20;;
6828;SDS011;17930;48.592;8.868;2023-04-08T15:00:31;7.73;;;5.63;;
6828;SDS011;17930;48.592;8.868;2023-04-08T15:02:57;7.83;;;5.80;;